createdAt,value
2023-11-19T00:01:55.796Z,8.00
2023-11-19T00:04:22.551Z,8.00
2023-11-19T00:06:49.527Z,8.00
2023-11-19T00:09:17.846Z,8.00
2023-11-19T00:11:54.247Z,8.10
2023-11-19T00:14:21.511Z,8.00
2023-11-19T00:16:48.329Z,8.00
2023-11-19T00:19:15.144Z,8.00
2023-11-19T00:21:42.424Z,8.00
2023-11-19T00:24:09.838Z,8.10
2023-11-19T00:26:36.723Z,8.10
2023-11-19T00:29:03.563Z,8.10
2023-11-19T00:31:30.515Z,8.10
2023-11-19T00:33:58.845Z,8.20
2023-11-19T00:36:26.317Z,8.20
2023-11-19T00:38:55.924Z,8.20
2023-11-19T00:41:23.990Z,8.30
2023-11-19T00:43:50.864Z,8.30
2023-11-19T00:46:17.816Z,8.20
2023-11-19T00:48:44.662Z,8.20
2023-11-19T00:51:13.376Z,8.20
2023-11-19T00:53:40.159Z,8.20
2023-11-19T00:56:07.263Z,8.30
2023-11-19T00:58:34.779Z,8.20
2023-11-19T01:01:01.626Z,8.20
2023-11-19T01:03:28.551Z,8.30
2023-11-19T01:05:55.384Z,8.30
2023-11-19T01:08:22.202Z,8.30
2023-11-19T01:10:49.033Z,8.20
2023-11-19T01:13:15.962Z,8.30
2023-11-19T01:15:43.282Z,8.30
2023-11-19T01:18:10.308Z,8.20
2023-11-19T01:20:38.086Z,8.30
2023-11-19T01:23:05.150Z,8.30
2023-11-19T01:25:32.275Z,8.30
2023-11-19T01:27:59.661Z,8.30
2023-11-19T01:30:27.339Z,8.30
2023-11-19T01:32:54.153Z,8.30
2023-11-19T01:35:20.911Z,8.30
2023-11-19T01:37:47.707Z,8.40
2023-11-19T01:40:14.691Z,8.40
2023-11-19T01:42:42.058Z,8.40
2023-11-19T01:45:10.679Z,8.30
2023-11-19T01:47:38.482Z,8.40
2023-11-19T01:50:09.350Z,8.40
2023-11-19T01:52:40.479Z,8.50
2023-11-19T01:55:10.272Z,8.50
2023-11-19T01:57:39.278Z,8.60
2023-11-19T02:00:12.761Z,8.60
2023-11-19T02:02:45.772Z,8.60
2023-11-19T02:05:14.467Z,8.60
2023-11-19T02:07:41.684Z,8.60
2023-11-19T02:10:14.014Z,8.60
2023-11-19T02:12:44.352Z,8.60
2023-11-19T02:15:11.686Z,8.70
2023-11-19T02:17:39.045Z,8.70
2023-11-19T02:20:12.414Z,8.70
2023-11-19T02:22:39.265Z,8.70
2023-11-19T02:25:09.135Z,8.70
2023-11-19T02:27:58.558Z,8.70
2023-11-19T02:30:29.333Z,8.80
2023-11-19T02:32:59.387Z,8.80
2023-11-19T02:35:27.338Z,8.80
2023-11-19T02:37:57.195Z,8.90
2023-11-19T02:40:25.678Z,8.90
2023-11-19T02:42:54.060Z,8.90
2023-11-19T02:45:20.873Z,8.90
2023-11-19T02:47:48.070Z,8.90
2023-11-19T02:50:15.710Z,9.00
2023-11-19T02:52:46.869Z,9.00
2023-11-19T02:55:14.311Z,9.00
2023-11-19T02:57:47.187Z,9.00
2023-11-19T03:00:19.583Z,9.10
2023-11-19T03:02:59.541Z,9.10
2023-11-19T03:05:28.065Z,9.10
2023-11-19T03:07:54.901Z,9.10
2023-11-19T03:10:21.716Z,9.20
2023-11-19T03:12:48.818Z,9.20
2023-11-19T03:15:15.597Z,9.20
2023-11-19T03:17:45.828Z,9.20
2023-11-19T03:20:17.922Z,9.30
2023-11-19T03:22:45.367Z,9.30
2023-11-19T03:25:12.676Z,9.20
2023-11-19T03:27:40.319Z,9.30
2023-11-19T03:30:07.865Z,9.30
2023-11-19T03:32:36.373Z,9.30
2023-11-19T03:35:05.599Z,9.30
2023-11-19T03:37:33.303Z,9.30
2023-11-19T03:40:02.981Z,9.40
2023-11-19T03:42:32.899Z,9.30
2023-11-19T03:45:00.432Z,9.30
2023-11-19T03:47:27.357Z,9.40
2023-11-19T03:49:54.085Z,9.40
2023-11-19T03:52:21.486Z,9.40
2023-11-19T03:54:48.477Z,9.40
2023-11-19T03:57:16.638Z,9.40
2023-11-19T03:59:43.601Z,9.40
2023-11-19T04:02:11.208Z,9.50
2023-11-19T04:04:40.114Z,9.50
2023-11-19T04:07:07.163Z,9.50
2023-11-19T04:09:34.117Z,9.50
2023-11-19T04:12:01.662Z,9.50
2023-11-19T04:14:28.509Z,9.40
2023-11-19T04:16:55.424Z,9.50
2023-11-19T04:19:23.204Z,9.50
2023-11-19T04:21:51.452Z,9.50
2023-11-19T04:24:18.420Z,9.50
2023-11-19T04:26:45.966Z,9.50
2023-11-19T04:29:13.908Z,9.50
2023-11-19T04:31:41.151Z,9.50
2023-11-19T04:34:08.521Z,9.50
2023-11-19T04:36:35.604Z,9.50
2023-11-19T04:39:02.875Z,9.50
2023-11-19T04:41:29.810Z,9.50
2023-11-19T04:43:56.592Z,9.50
2023-11-19T04:46:25.048Z,9.50
2023-11-19T04:48:52.122Z,9.50
2023-11-19T04:51:19.038Z,9.60
2023-11-19T04:53:45.854Z,9.60
2023-11-19T04:56:14.289Z,9.60
2023-11-19T04:58:41.245Z,9.60
2023-11-19T05:01:17.013Z,9.70
2023-11-19T05:03:44.363Z,9.70
2023-11-19T05:06:11.270Z,9.70
2023-11-19T05:08:38.217Z,9.70
2023-11-19T05:11:05.164Z,9.70
2023-11-19T05:13:32.055Z,9.70
2023-11-19T05:15:58.778Z,9.70
2023-11-19T05:18:25.651Z,9.60
2023-11-19T05:20:52.516Z,9.80
2023-11-19T05:23:21.940Z,9.70
2023-11-19T05:25:48.951Z,9.70
2023-11-19T05:28:16.004Z,9.70
2023-11-19T05:30:43.246Z,9.70
2023-11-19T05:33:10.395Z,9.80
2023-11-19T05:35:37.232Z,9.80
2023-11-19T05:38:04.705Z,9.90
2023-11-19T05:40:31.611Z,9.90
2023-11-19T05:42:58.540Z,9.90
2023-11-19T05:45:25.375Z,10.00
2023-11-19T05:47:53.679Z,10.00
2023-11-19T05:50:20.577Z,10.00
2023-11-19T05:52:47.693Z,10.00
2023-11-19T05:55:15.262Z,10.00
2023-11-19T06:00:14.296Z,10.00
2023-11-19T06:02:41.769Z,10.10
2023-11-19T06:05:08.945Z,10.10
2023-11-19T06:07:37.039Z,10.10
2023-11-19T06:10:06.549Z,10.20
2023-11-19T06:12:38.614Z,10.20
2023-11-19T06:15:12.608Z,10.20
2023-11-19T06:17:39.671Z,10.20
2023-11-19T06:20:07.763Z,10.20
2023-11-19T06:22:34.667Z,10.20
2023-11-19T06:25:01.490Z,10.20
2023-11-19T06:27:28.519Z,10.20
2023-11-19T06:29:55.262Z,10.30
2023-11-19T06:32:22.054Z,10.30
2023-11-19T06:34:49.153Z,10.30
2023-11-19T06:37:15.985Z,10.30
2023-11-19T06:39:42.844Z,10.30
2023-11-19T06:42:11.036Z,10.30
2023-11-19T06:44:37.827Z,10.40
2023-11-19T06:47:04.667Z,10.40
2023-11-19T06:49:31.498Z,10.40
2023-11-19T06:51:58.398Z,10.50
2023-11-19T06:54:25.080Z,10.50
2023-11-19T06:56:52.405Z,10.50
2023-11-19T06:59:20.007Z,10.50
2023-11-19T07:01:46.852Z,10.60
2023-11-19T07:04:13.768Z,10.60
2023-11-19T07:06:45.360Z,10.60
2023-11-19T07:09:12.144Z,10.60
2023-11-19T07:11:40.699Z,10.60
2023-11-19T07:14:08.768Z,10.60
2023-11-19T07:16:38.331Z,10.70
2023-11-19T07:19:09.089Z,10.60
2023-11-19T07:21:36.392Z,10.70
2023-11-19T07:24:04.203Z,10.80
2023-11-19T07:26:31.033Z,10.90
2023-11-19T07:28:58.036Z,10.90
2023-11-19T07:31:25.163Z,10.90
2023-11-19T07:33:51.991Z,11.00
2023-11-19T07:36:18.787Z,11.00
2023-11-19T07:38:47.361Z,11.00
2023-11-19T07:41:14.629Z,11.10
2023-11-19T07:43:45.533Z,11.20
2023-11-19T07:46:16.186Z,11.30
2023-11-19T07:48:43.401Z,11.20
2023-11-19T07:51:13.033Z,11.20
2023-11-19T07:53:41.601Z,11.20
2023-11-19T07:56:11.524Z,11.20
2023-11-19T07:58:38.320Z,11.40
2023-11-19T08:01:06.126Z,12.00
2023-11-19T08:03:35.496Z,12.70
2023-11-19T08:06:02.958Z,13.20
2023-11-19T08:08:33.999Z,13.90
2023-11-19T08:11:00.888Z,14.50
2023-11-19T08:13:28.282Z,14.90
2023-11-19T08:15:55.079Z,15.30
2023-11-19T08:18:21.948Z,15.50
2023-11-19T08:20:53.707Z,15.80
2023-11-19T08:23:21.069Z,16.20
2023-11-19T08:25:48.083Z,16.80
2023-11-19T08:28:14.879Z,17.40
2023-11-19T08:30:41.839Z,17.70
2023-11-19T08:33:08.713Z,18.40
2023-11-19T08:35:35.718Z,18.90
2023-11-19T08:38:02.598Z,18.80
2023-11-19T08:40:30.776Z,18.10
2023-11-19T08:42:57.819Z,17.10
2023-11-19T08:45:24.665Z,16.10
2023-11-19T08:47:51.628Z,15.50
2023-11-19T08:50:18.723Z,14.90
2023-11-19T08:52:45.544Z,14.40
2023-11-19T08:55:14.630Z,14.00
2023-11-19T08:57:41.534Z,13.70
2023-11-19T09:00:09.146Z,13.50
2023-11-19T09:02:39.676Z,13.40
2023-11-19T09:05:08.841Z,13.20
2023-11-19T09:07:35.754Z,13.10
2023-11-19T09:10:02.709Z,13.00
2023-11-19T09:12:29.638Z,13.00
2023-11-19T09:14:56.448Z,13.00
2023-11-19T09:17:23.548Z,13.00
2023-11-19T09:19:54.925Z,13.10
2023-11-19T09:22:21.984Z,13.50
2023-11-19T09:24:49.310Z,14.90
2023-11-19T09:27:16.850Z,16.80
2023-11-19T09:29:44.380Z,18.00
2023-11-19T09:32:11.466Z,18.60
2023-11-19T09:34:38.291Z,19.60
2023-11-19T09:37:05.271Z,20.70
2023-11-19T09:39:32.088Z,21.40
2023-11-19T09:41:59.030Z,22.00
2023-11-19T09:44:28.504Z,22.70
2023-11-19T09:46:56.434Z,22.70
2023-11-19T09:51:56.770Z,24.00
2023-11-19T09:54:23.697Z,24.80
2023-11-19T09:56:51.034Z,25.40
2023-11-19T09:59:19.879Z,26.10
2023-11-19T10:01:47.683Z,26.20
2023-11-19T10:04:18.307Z,26.40
2023-11-19T10:06:45.347Z,26.70
2023-11-19T10:09:14.152Z,27.20
2023-11-19T10:11:50.432Z,27.50
2023-11-19T10:14:22.536Z,27.50
2023-11-19T10:16:49.333Z,27.00
2023-11-19T10:19:22.436Z,26.60
2023-11-19T10:21:49.607Z,26.60
2023-11-19T10:24:30.235Z,26.90
2023-11-19T10:27:09.716Z,26.60
2023-11-19T10:29:39.958Z,27.30
2023-11-19T10:32:24.433Z,26.80
2023-11-19T10:34:53.805Z,27.10
2023-11-19T10:37:39.032Z,26.80
2023-11-19T10:40:06.772Z,25.40
2023-11-19T10:42:33.587Z,22.80
2023-11-19T10:45:00.347Z,21.60
2023-11-19T10:49:57.102Z,19.10
2023-11-19T10:52:24.965Z,18.30
2023-11-19T10:54:55.135Z,17.80
2023-11-19T10:57:25.353Z,17.60
2023-11-19T10:59:57.068Z,17.60
2023-11-19T11:02:27.725Z,17.50
2023-11-19T11:04:55.499Z,17.40
2023-11-19T11:07:32.576Z,17.20
2023-11-19T11:10:09.051Z,17.30
2023-11-19T11:12:40.644Z,18.10
2023-11-19T11:15:09.271Z,18.50
2023-11-19T11:17:37.772Z,17.90
2023-11-19T11:20:05.978Z,17.40
2023-11-19T11:22:52.218Z,17.00
2023-11-19T11:25:38.410Z,16.70
2023-11-19T11:28:29.732Z,16.50
2023-11-19T11:31:00.509Z,16.40
2023-11-19T11:36:35.165Z,16.40
2023-11-19T11:39:04.765Z,16.40
2023-11-19T11:41:32.013Z,16.50
2023-11-19T11:44:02.813Z,16.50
2023-11-19T11:46:38.780Z,16.60
2023-11-19T11:49:09.363Z,17.00
2023-11-19T11:51:49.451Z,18.80
2023-11-19T11:54:19.379Z,20.40
2023-11-19T11:57:15.472Z,21.50
2023-11-19T11:59:45.843Z,22.60
2023-11-19T12:02:18.681Z,22.90
2023-11-19T12:04:51.453Z,22.90
2023-11-19T12:07:27.379Z,23.80
2023-11-19T12:10:10.609Z,25.10
2023-11-19T12:16:12.470Z,26.50
2023-11-19T12:18:42.829Z,26.70
2023-11-19T12:21:11.516Z,26.90
2023-11-19T12:23:49.418Z,26.70
2023-11-19T12:26:33.445Z,25.40
2023-11-19T12:29:02.441Z,25.60
2023-11-19T12:31:30.431Z,25.00
2023-11-19T12:34:39.346Z,24.60
2023-11-19T12:37:09.321Z,24.80
2023-11-19T12:39:36.684Z,26.10
2023-11-19T12:42:03.724Z,25.80
2023-11-19T12:44:31.935Z,24.70
2023-11-19T12:47:08.795Z,24.30
2023-11-19T12:49:35.706Z,24.50
2023-11-19T12:52:03.033Z,25.40
2023-11-19T12:54:37.257Z,26.20
2023-11-19T12:57:09.352Z,26.10
2023-11-19T12:59:36.402Z,26.70
2023-11-19T13:02:06.637Z,26.30
2023-11-19T13:04:33.941Z,26.40
2023-11-19T13:07:08.938Z,27.00
2023-11-19T13:09:36.153Z,26.90
2023-11-19T13:12:14.984Z,26.70
2023-11-19T13:14:43.774Z,25.90
2023-11-19T13:17:14.934Z,24.40
2023-11-19T13:19:41.920Z,24.70
2023-11-19T13:22:08.906Z,24.40
2023-11-19T13:24:36.526Z,24.30
2023-11-19T13:27:04.057Z,24.00
2023-11-19T13:29:32.449Z,23.70
2023-11-19T13:32:01.069Z,23.80
2023-11-19T13:34:28.206Z,24.20
2023-11-19T13:36:56.122Z,23.90
2023-11-19T13:39:24.805Z,23.90
2023-11-19T13:41:51.793Z,23.40
2023-11-19T13:44:19.325Z,23.50
2023-11-19T13:46:47.248Z,22.70
2023-11-19T13:49:14.088Z,22.80
2023-11-19T13:51:40.893Z,23.60
2023-11-19T13:54:07.732Z,23.80
2023-11-19T13:56:34.591Z,24.10
2023-11-19T13:59:04.137Z,23.60
2023-11-19T14:01:33.035Z,22.40
2023-11-19T14:04:00.145Z,22.00
2023-11-19T14:06:27.135Z,21.30
2023-11-19T14:08:54.013Z,20.50
2023-11-19T14:11:20.791Z,19.70
2023-11-19T14:13:47.991Z,18.80
2023-11-19T14:16:15.800Z,18.10
2023-11-19T14:18:42.740Z,17.50
2023-11-19T14:21:09.763Z,16.90
2023-11-19T14:23:36.608Z,16.60
2023-11-19T14:26:03.892Z,16.20
2023-11-19T14:28:32.292Z,16.70
2023-11-19T14:30:59.125Z,17.70
2023-11-19T14:33:25.978Z,18.30
2023-11-19T14:35:53.281Z,18.10
2023-11-19T14:38:20.210Z,18.00
2023-11-19T14:40:47.172Z,17.70
2023-11-19T14:43:14.932Z,17.40
2023-11-19T14:45:47.805Z,17.00
2023-11-19T14:48:19.191Z,16.80
2023-11-19T14:50:46.227Z,16.50
2023-11-19T14:53:15.701Z,16.30
2023-11-19T14:55:42.525Z,16.20
2023-11-19T14:58:11.271Z,15.90
2023-11-19T15:00:39.847Z,15.80
2023-11-19T15:03:07.945Z,15.60
2023-11-19T15:05:35.631Z,15.50
2023-11-19T15:08:04.362Z,15.30
2023-11-19T15:10:31.420Z,15.10
2023-11-19T15:12:58.969Z,14.90
2023-11-19T15:17:55.865Z,14.70
2023-11-19T15:20:22.838Z,14.60
2023-11-19T15:22:49.807Z,14.40
2023-11-19T15:25:16.656Z,14.30
2023-11-19T15:27:43.515Z,14.20
2023-11-19T15:30:11.666Z,14.20
2023-11-19T15:32:39.910Z,14.10
2023-11-19T15:35:08.932Z,14.00
2023-11-19T15:37:36.827Z,13.90
2023-11-19T15:40:09.250Z,13.90
2023-11-19T15:42:36.827Z,13.80
2023-11-19T15:45:08.097Z,13.70
2023-11-19T15:47:36.798Z,13.60
2023-11-19T15:50:05.067Z,13.50
2023-11-19T15:52:32.853Z,13.50
2023-11-19T15:54:59.757Z,13.40
2023-11-19T15:57:26.861Z,13.30
2023-11-19T15:59:54.962Z,13.10
2023-11-19T16:02:22.962Z,13.00
2023-11-19T16:04:51.630Z,12.80
2023-11-19T16:07:18.728Z,12.80
2023-11-19T16:09:45.800Z,12.70
2023-11-19T16:12:12.734Z,12.60
2023-11-19T16:14:39.708Z,12.60
2023-11-19T16:17:07.336Z,12.60
2023-11-19T16:19:36.039Z,12.60
2023-11-19T16:22:11.307Z,12.60
2023-11-19T16:24:38.820Z,12.60
2023-11-19T16:27:06.096Z,12.50
2023-11-19T16:29:33.033Z,12.50
2023-11-19T16:31:59.991Z,12.50
2023-11-19T16:34:26.895Z,12.50
2023-11-19T16:36:53.791Z,12.50
2023-11-19T16:39:20.571Z,12.50
2023-11-19T16:41:54.333Z,12.60
2023-11-19T16:44:21.393Z,12.50
2023-11-19T16:46:48.425Z,12.50
2023-11-19T16:49:15.390Z,12.60
2023-11-19T16:51:45.708Z,12.50
2023-11-19T16:54:13.571Z,12.60
2023-11-19T16:56:42.726Z,12.60
2023-11-19T16:59:09.685Z,12.70
2023-11-19T17:01:38.118Z,12.70
2023-11-19T17:04:09.175Z,12.70
2023-11-19T17:06:38.784Z,12.70
2023-11-19T17:09:05.790Z,12.80
2023-11-19T17:11:33.662Z,12.80
2023-11-19T17:17:07.418Z,12.80
2023-11-19T17:19:34.388Z,12.80
2023-11-19T17:22:01.221Z,12.90
2023-11-19T17:24:28.125Z,12.80
2023-11-19T17:26:55.164Z,12.80
2023-11-19T17:29:23.137Z,12.80
2023-11-19T17:31:50.153Z,12.70
2023-11-19T17:34:17.149Z,12.70
2023-11-19T17:36:44.130Z,12.60
2023-11-19T17:39:12.039Z,12.50
2023-11-19T17:41:40.451Z,12.40
2023-11-19T17:44:07.763Z,12.30
2023-11-19T17:46:34.774Z,12.30
2023-11-19T17:49:01.710Z,12.30
2023-11-19T17:51:28.590Z,12.30
2023-11-19T17:53:56.168Z,12.30
2023-11-19T17:56:22.966Z,12.20
2023-11-19T17:58:50.160Z,12.20
2023-11-19T18:01:17.589Z,12.10
2023-11-19T18:03:44.897Z,12.10
2023-11-19T18:06:20.744Z,12.00
2023-11-19T18:08:48.001Z,11.90
2023-11-19T18:11:15.274Z,11.90
2023-11-19T18:13:42.272Z,11.80
2023-11-19T18:16:13.954Z,11.80
2023-11-19T18:18:41.038Z,11.80
2023-11-19T18:21:08.429Z,11.80
2023-11-19T18:23:35.180Z,11.70
2023-11-19T18:26:02.398Z,11.70
2023-11-19T18:28:29.722Z,11.60
2023-11-19T18:30:56.862Z,11.70
2023-11-19T18:33:23.918Z,11.70
2023-11-19T18:35:50.794Z,11.70
2023-11-19T18:38:17.854Z,11.70
2023-11-19T18:40:44.635Z,11.70
2023-11-19T18:43:11.481Z,11.60
2023-11-19T18:45:38.288Z,11.50
2023-11-19T18:48:06.948Z,11.50
2023-11-19T18:50:52.012Z,11.40
2023-11-19T18:53:19.615Z,11.40
2023-11-19T18:55:46.526Z,11.30
2023-11-19T18:58:13.384Z,11.20
2023-11-19T19:00:40.205Z,11.10
2023-11-19T19:03:08.847Z,11.10
2023-11-19T19:05:35.820Z,10.90
2023-11-19T19:08:02.873Z,10.80
2023-11-19T19:10:29.704Z,10.80
2023-11-19T19:12:56.575Z,10.70
2023-11-19T19:15:23.588Z,10.70
2023-11-19T19:17:51.713Z,10.80
2023-11-19T19:20:18.785Z,10.90
2023-11-19T19:22:47.221Z,10.90
2023-11-19T19:25:15.227Z,11.00
2023-11-19T19:27:42.164Z,11.10
2023-11-19T19:30:09.844Z,11.20
2023-11-19T19:32:37.071Z,11.20
2023-11-19T19:35:04.097Z,11.30
2023-11-19T19:37:31.254Z,11.40
2023-11-19T19:39:58.158Z,11.50
2023-11-19T19:42:25.010Z,11.70
2023-11-19T19:44:52.037Z,11.80
2023-11-19T19:47:19.276Z,11.90
2023-11-19T19:49:46.339Z,12.00
2023-11-19T19:52:13.242Z,12.10
2023-11-19T19:54:40.101Z,12.30
2023-11-19T19:57:06.948Z,12.40
2023-11-19T19:59:34.762Z,12.40
2023-11-19T20:02:02.864Z,12.40
2023-11-19T20:04:30.326Z,12.50
2023-11-19T20:06:57.336Z,12.50
2023-11-19T20:09:24.366Z,12.60
2023-11-19T20:11:53.158Z,12.60
2023-11-19T20:14:24.697Z,12.60
2023-11-19T20:17:11.169Z,12.50
2023-11-19T20:19:39.413Z,12.60
2023-11-19T20:22:06.381Z,12.50
2023-11-19T20:24:33.135Z,12.50
2023-11-19T20:26:59.960Z,12.60
2023-11-19T20:29:28.276Z,12.70
2023-11-19T20:31:55.295Z,12.60
2023-11-19T20:34:22.172Z,12.60
2023-11-19T20:36:49.070Z,12.50
2023-11-19T20:39:15.864Z,12.50
2023-11-19T20:41:43.376Z,12.50
2023-11-19T20:44:11.562Z,12.50
2023-11-19T20:46:38.441Z,12.50
2023-11-19T20:49:05.299Z,12.50
2023-11-19T20:51:33.478Z,12.50
2023-11-19T20:54:00.949Z,12.60
2023-11-19T20:56:27.677Z,12.60
2023-11-19T20:58:55.085Z,12.60
2023-11-19T21:01:22.572Z,12.60
2023-11-19T21:03:49.811Z,12.60
2023-11-19T21:06:17.698Z,12.60
2023-11-19T21:08:44.729Z,12.60
2023-11-19T21:11:11.701Z,12.60
2023-11-19T21:13:39.410Z,12.60
2023-11-19T21:16:08.604Z,12.50
2023-11-19T21:18:36.828Z,12.50
2023-11-19T21:21:05.205Z,12.50
2023-11-19T21:23:32.647Z,12.40
2023-11-19T21:26:00.504Z,12.40
2023-11-19T21:28:28.183Z,12.40
2023-11-19T21:30:58.669Z,12.40
2023-11-19T21:33:29.325Z,12.40
2023-11-19T21:35:59.427Z,12.40
2023-11-19T21:38:26.956Z,12.40
2023-11-19T21:40:53.952Z,12.50
2023-11-19T21:43:20.697Z,12.50
2023-11-19T21:45:47.532Z,12.50
2023-11-19T21:48:14.346Z,12.60
2023-11-19T21:50:43.043Z,12.50
2023-11-19T21:53:10.464Z,12.60
2023-11-19T21:55:37.291Z,12.50
2023-11-19T21:58:05.180Z,12.60
2023-11-19T22:00:32.794Z,12.60
2023-11-19T22:02:59.773Z,12.60
2023-11-19T22:05:27.125Z,12.60
2023-11-19T22:07:54.129Z,12.50
2023-11-19T22:10:20.833Z,12.50
2023-11-19T22:12:47.736Z,12.50
2023-11-19T22:15:14.552Z,12.60
2023-11-19T22:17:41.498Z,12.60
2023-11-19T22:20:24.648Z,12.60
2023-11-19T22:22:54.564Z,12.60
2023-11-19T22:25:25.983Z,12.60
2023-11-19T22:27:54.294Z,12.60
2023-11-19T22:30:21.261Z,12.70
2023-11-19T22:32:48.368Z,12.70
2023-11-19T22:35:15.800Z,12.60
2023-11-19T22:37:42.697Z,12.60
2023-11-19T22:40:09.796Z,12.60
2023-11-19T22:42:37.948Z,12.60
2023-11-19T22:45:05.589Z,12.50
2023-11-19T22:47:32.339Z,12.60
2023-11-19T22:49:59.121Z,12.60
2023-11-19T22:52:25.948Z,12.50
2023-11-19T22:54:52.868Z,12.50
2023-11-19T22:57:21.271Z,12.50
2023-11-19T22:59:48.415Z,12.50
2023-11-19T23:02:15.204Z,12.60
2023-11-19T23:04:42.114Z,12.60
2023-11-19T23:07:09.101Z,12.60
2023-11-19T23:09:35.939Z,12.50
2023-11-19T23:12:02.705Z,12.50
2023-11-19T23:14:30.485Z,12.60
2023-11-19T23:16:58.712Z,12.60
2023-11-19T23:19:25.695Z,12.60
2023-11-19T23:21:52.836Z,12.60
2023-11-19T23:24:19.569Z,12.70
2023-11-19T23:26:46.391Z,12.60
2023-11-19T23:29:16.369Z,12.60
2023-11-19T23:31:46.570Z,12.60
2023-11-19T23:34:13.509Z,12.60
2023-11-19T23:36:42.606Z,12.60
2023-11-19T23:39:10.435Z,12.60
2023-11-19T23:41:37.260Z,12.60
2023-11-19T23:44:04.327Z,12.60
2023-11-19T23:46:31.291Z,12.50
2023-11-19T23:48:59.927Z,12.60
2023-11-19T23:51:27.541Z,12.60
2023-11-19T23:53:54.523Z,12.70
2023-11-19T23:56:21.549Z,12.70
2023-11-19T23:58:48.591Z,12.60
